createdAt,value
2019-05-06T00:00:24.691Z,7.55
2019-05-06T00:02:56.181Z,7.49
2019-05-06T00:05:27.554Z,7.43
2019-05-06T00:07:58.642Z,7.39
2019-05-06T00:10:31.120Z,7.39
2019-05-06T00:13:02.013Z,7.31
2019-05-06T00:15:34.295Z,7.26
2019-05-06T00:18:06.221Z,7.15
2019-05-06T00:20:37.281Z,7.13
2019-05-06T00:23:28.291Z,7.09
2019-05-06T00:26:30.159Z,7.04
2019-05-06T00:29:05.028Z,6.96
2019-05-06T00:31:36.325Z,6.90
2019-05-06T00:34:07.276Z,6.84
2019-05-06T00:36:38.331Z,6.79
2019-05-06T00:39:26.802Z,6.76
2019-05-06T00:42:04.999Z,6.70
2019-05-06T00:44:36.032Z,6.56
2019-05-06T00:47:07.037Z,6.54
2019-05-06T00:49:38.090Z,6.41
2019-05-06T00:52:09.083Z,6.34
2019-05-06T00:54:40.390Z,6.34
2019-05-06T00:57:11.473Z,6.32
2019-05-06T00:59:44.165Z,6.31
2019-05-06T01:02:15.441Z,6.35
2019-05-06T01:04:46.479Z,6.29
2019-05-06T01:07:17.437Z,6.23
2019-05-06T01:09:48.596Z,6.14
2019-05-06T01:12:19.738Z,6.09
2019-05-06T01:14:54.376Z,6.11
2019-05-06T01:17:25.170Z,6.09
2019-05-06T01:19:56.497Z,6.05
2019-05-06T01:22:29.027Z,5.93
2019-05-06T01:25:00.397Z,5.89
2019-05-06T01:27:33.642Z,5.85
2019-05-06T01:30:04.728Z,5.82
2019-05-06T01:32:35.771Z,5.78
2019-05-06T01:35:06.951Z,5.73
2019-05-06T01:37:39.451Z,5.68
2019-05-06T01:40:35.217Z,5.66
2019-05-06T01:43:11.279Z,5.63
2019-05-06T01:45:43.917Z,5.60
2019-05-06T01:48:18.429Z,5.57
2019-05-06T01:50:49.449Z,5.54
2019-05-06T01:53:20.374Z,5.53
2019-05-06T01:55:51.455Z,5.54
2019-05-06T01:58:24.287Z,5.51
2019-05-06T02:00:55.414Z,5.49
2019-05-06T02:03:26.388Z,5.50
2019-05-06T02:05:57.325Z,5.51
2019-05-06T02:08:28.538Z,5.48
2019-05-06T02:10:59.887Z,5.47
2019-05-06T02:13:31.421Z,5.47
2019-05-06T02:16:03.970Z,5.46
2019-05-06T02:18:35.222Z,5.45
2019-05-06T02:21:14.407Z,5.42
2019-05-06T02:23:49.571Z,5.41
2019-05-06T02:26:20.701Z,5.38
2019-05-06T02:28:54.524Z,5.34
2019-05-06T02:31:45.862Z,5.30
2019-05-06T02:34:21.595Z,5.28
2019-05-06T02:37:01.824Z,5.19
2019-05-06T02:39:34.091Z,5.17
2019-05-06T02:42:07.259Z,5.16
2019-05-06T02:44:38.450Z,5.15
2019-05-06T02:47:23.741Z,5.11
2019-05-06T02:49:57.959Z,5.09
2019-05-06T02:52:29.144Z,5.06
2019-05-06T02:55:01.765Z,5.07
2019-05-06T02:57:33.658Z,5.06
2019-05-06T03:00:06.617Z,4.97
2019-05-06T03:02:43.306Z,4.94
2019-05-06T03:05:12.888Z,4.92
2019-05-06T03:07:43.588Z,4.89
2019-05-06T03:10:16.001Z,4.87
2019-05-06T03:12:46.940Z,4.85
2019-05-06T03:15:17.915Z,4.80
2019-05-06T03:17:48.877Z,4.80
2019-05-06T03:21:00.298Z,4.78
2019-05-06T03:23:34.906Z,4.77
2019-05-06T03:26:06.983Z,4.74
2019-05-06T03:28:38.666Z,4.71
2019-05-06T03:31:09.739Z,4.73
2019-05-06T03:33:58.480Z,4.72
2019-05-06T03:36:23.846Z,4.71
2019-05-06T03:38:46.208Z,4.66
2019-05-06T03:41:17.708Z,4.69
2019-05-06T03:43:49.107Z,4.71
2019-05-06T03:46:38.487Z,4.69
2019-05-06T03:49:09.609Z,4.66
2019-05-06T03:51:42.867Z,4.53
2019-05-06T03:54:13.727Z,4.53
2019-05-06T03:56:44.853Z,4.60
2019-05-06T03:59:16.355Z,4.56
2019-05-06T04:01:47.302Z,4.61
2019-05-06T04:04:18.336Z,4.55
2019-05-06T04:06:53.796Z,4.63
2019-05-06T04:09:24.692Z,4.69
2019-05-06T04:11:55.920Z,4.73
2019-05-06T04:14:27.687Z,4.71
2019-05-06T04:17:06.390Z,4.64
2019-05-06T04:19:44.567Z,4.62
2019-05-06T04:22:23.535Z,4.65
2019-05-06T04:27:48.239Z,4.82
2019-05-06T04:30:20.442Z,4.75
2019-05-06T04:32:53.221Z,4.63
2019-05-06T04:35:24.572Z,4.79
2019-05-06T04:37:55.769Z,4.72
2019-05-06T04:40:26.831Z,4.71
2019-05-06T04:42:57.676Z,4.75
2019-05-06T04:45:29.011Z,4.83
2019-05-06T04:48:03.308Z,4.91
2019-05-06T04:50:33.362Z,4.94
2019-05-06T04:53:05.544Z,4.97
2019-05-06T04:55:37.859Z,4.98
2019-05-06T04:58:13.480Z,4.93
2019-05-06T05:00:44.795Z,4.99
2019-05-06T05:06:16.210Z,5.10
2019-05-06T05:11:48.402Z,5.32
2019-05-06T05:14:37.718Z,5.37
2019-05-06T05:17:12.838Z,5.42
2019-05-06T05:24:42.635Z,5.29
2019-05-06T05:27:17.228Z,5.43
2019-05-06T05:29:49.035Z,5.53
2019-05-06T05:34:52.258Z,5.69
2019-05-06T05:39:52.819Z,5.73
2019-05-06T05:44:53.287Z,5.83
2019-05-06T05:47:25.404Z,5.92
2019-05-06T05:50:04.892Z,5.98
2019-05-06T05:57:36.116Z,6.04
2019-05-06T06:00:12.919Z,6.01
2019-05-06T06:02:45.093Z,6.00
2019-05-06T06:05:17.032Z,6.08
2019-05-06T06:07:48.113Z,6.16
2019-05-06T06:10:43.537Z,6.17
2019-05-06T06:13:16.626Z,6.18
2019-05-06T06:16:13.731Z,6.10
2019-05-06T06:19:04.254Z,6.09
2019-05-06T06:22:22.768Z,6.03
2019-05-06T06:24:54.348Z,6.03
2019-05-06T06:33:06.933Z,6.08
2019-05-06T06:38:26.391Z,6.15
2019-05-06T06:43:48.144Z,6.29
2019-05-06T06:49:16.199Z,6.19
2019-05-06T06:57:07.255Z,6.47
2019-05-06T07:02:32.820Z,6.51
2019-05-06T07:14:22.603Z,6.79
2019-05-06T07:17:13.651Z,6.78
2019-05-06T07:22:42.295Z,6.88
2019-05-06T07:25:19.339Z,7.15
2019-05-06T07:27:57.041Z,7.27
2019-05-06T07:33:47.352Z,7.53
2019-05-06T07:36:22.805Z,7.44
2019-05-06T07:42:04.939Z,7.70
2019-05-06T07:45:14.397Z,7.83
2019-05-06T07:49:32.751Z,7.83
2019-05-06T07:51:49.391Z,7.93
2019-05-06T07:57:10.055Z,8.28
2019-05-06T08:02:22.793Z,8.41
2019-05-06T08:07:29.098Z,8.54
2019-05-06T08:10:02.134Z,8.59
2019-05-06T08:12:33.950Z,8.74
2019-05-06T08:15:08.006Z,9.35
2019-05-06T08:17:42.380Z,9.87
2019-05-06T08:20:15.333Z,10.27
2019-05-06T08:23:12.602Z,10.16
2019-05-06T08:25:49.112Z,10.16
2019-05-06T08:30:53.721Z,9.92
2019-05-06T08:36:07.592Z,10.06
2019-05-06T08:40:56.525Z,10.57
2019-05-06T08:46:03.043Z,10.85
2019-05-06T08:51:03.821Z,11.62
2019-05-06T08:56:09.729Z,12.07
2019-05-06T09:01:49.556Z,11.85
2019-05-06T09:07:04.303Z,12.32
2019-05-06T09:09:35.647Z,12.43
2019-05-06T09:12:13.033Z,12.55
2019-05-06T09:14:45.101Z,12.21
2019-05-06T09:19:45.265Z,11.79
2019-05-06T09:22:18.852Z,11.82
2019-05-06T09:27:39.298Z,11.79
2019-05-06T09:35:08.787Z,11.32
2019-05-06T09:42:38.539Z,12.12
2019-05-06T09:45:12.510Z,12.46
2019-05-06T09:47:55.999Z,12.51
2019-05-06T09:53:15.389Z,12.85
2019-05-06T09:58:15.391Z,12.35
2019-05-06T10:00:49.052Z,12.55
2019-05-06T10:03:39.276Z,12.76
2019-05-06T10:06:12.949Z,13.05
2019-05-06T10:08:43.727Z,12.86
2019-05-06T10:11:15.673Z,12.84
2019-05-06T10:18:47.086Z,12.97
2019-05-06T10:21:19.736Z,13.08
2019-05-06T10:26:20.611Z,13.61
2019-05-06T10:29:12.708Z,13.71
2019-05-06T10:31:46.747Z,13.39
2019-05-06T10:34:22.054Z,13.25
2019-05-06T10:37:33.344Z,13.65
2019-05-06T10:43:08.692Z,12.87
2019-05-06T10:48:16.454Z,12.74
2019-05-06T10:53:24.259Z,13.09
2019-05-06T10:58:26.197Z,12.86
2019-05-06T11:03:33.028Z,12.74
2019-05-06T11:08:35.515Z,12.56
2019-05-06T11:13:37.959Z,12.47
2019-05-06T11:18:42.615Z,13.02
2019-05-06T11:24:00.762Z,13.31
2019-05-06T11:26:32.980Z,13.20
2019-05-06T11:29:07.601Z,12.73
2019-05-06T11:32:02.515Z,12.49
2019-05-06T11:34:53.079Z,12.63
2019-05-06T11:37:50.173Z,12.62
2019-05-06T11:40:17.076Z,12.63
2019-05-06T11:47:47.021Z,12.50
2019-05-06T11:50:18.282Z,12.44
2019-05-06T11:57:57.673Z,12.27
2019-05-06T12:03:07.425Z,12.20
2019-05-06T12:08:09.006Z,11.73
2019-05-06T12:13:13.338Z,11.43
2019-05-06T12:21:11.295Z,11.81
2019-05-06T12:26:09.098Z,11.77
2019-05-06T12:31:09.462Z,12.00
2019-05-06T12:34:02.644Z,11.98
2019-05-06T12:39:20.002Z,12.20
2019-05-06T12:42:10.404Z,12.24
2019-05-06T12:44:44.855Z,12.14
2019-05-06T12:47:42.683Z,11.76
2019-05-06T12:50:14.768Z,11.75
2019-05-06T12:52:49.109Z,11.70
2019-05-06T12:55:24.834Z,11.51
2019-05-06T12:58:13.643Z,11.26
2019-05-06T13:00:47.739Z,11.21
2019-05-06T13:03:23.613Z,11.32
2019-05-06T13:05:57.059Z,11.28
2019-05-06T13:13:33.244Z,11.27
2019-05-06T13:16:17.042Z,11.15
2019-05-06T13:19:03.070Z,11.51
2019-05-06T13:24:07.935Z,11.60
2019-05-06T13:29:08.453Z,10.69
2019-05-06T13:34:08.727Z,10.79
2019-05-06T13:36:42.748Z,11.40
2019-05-06T13:39:32.889Z,11.28
2019-05-06T13:42:04.685Z,11.65
2019-05-06T13:44:36.057Z,11.80
2019-05-06T13:49:43.602Z,11.99
2019-05-06T13:52:23.179Z,12.11
2019-05-06T13:54:54.639Z,12.34
2019-05-06T13:57:28.922Z,12.36
2019-05-06T13:59:59.617Z,12.53
2019-05-06T14:02:50.086Z,12.48
2019-05-06T14:05:23.268Z,12.62
2019-05-06T14:08:13.168Z,12.59
2019-05-06T14:10:56.677Z,12.80
2019-05-06T14:18:18.462Z,12.85
2019-05-06T14:21:08.588Z,12.57
2019-05-06T14:23:40.372Z,12.48
2019-05-06T14:26:22.748Z,12.71
2019-05-06T14:28:53.514Z,12.47
2019-05-06T14:36:23.183Z,12.79
2019-05-06T14:41:27.520Z,12.94
2019-05-06T14:46:28.930Z,13.12
2019-05-06T14:51:32.900Z,13.39
2019-05-06T14:54:08.155Z,12.88
2019-05-06T14:59:19.990Z,13.05
2019-05-06T15:04:39.437Z,13.52
2019-05-06T15:07:12.518Z,13.58
2019-05-06T15:09:55.794Z,13.68
2019-05-06T15:12:16.009Z,13.88
2019-05-06T15:14:47.059Z,13.74
2019-05-06T15:17:18.211Z,13.63
2019-05-06T15:19:49.390Z,13.76
2019-05-06T15:22:22.455Z,13.50
2019-05-06T15:27:22.769Z,13.05
2019-05-06T15:35:22.331Z,12.85
2019-05-06T15:40:36.556Z,12.95
2019-05-06T15:43:10.186Z,12.80
2019-05-06T15:45:43.602Z,12.65
2019-05-06T15:48:15.443Z,12.69
2019-05-06T15:50:47.779Z,12.62
2019-05-06T15:55:53.270Z,12.60
2019-05-06T16:00:56.848Z,12.27
2019-05-06T16:05:57.576Z,12.06
2019-05-06T16:11:02.928Z,12.15
2019-05-06T16:16:09.236Z,12.29
2019-05-06T16:21:13.783Z,12.27
2019-05-06T16:34:12.076Z,12.06
2019-05-06T16:39:17.199Z,11.77
2019-05-06T16:41:49.068Z,11.71
2019-05-06T16:46:49.396Z,11.47
2019-05-06T16:51:52.472Z,11.56
2019-05-06T16:54:42.614Z,11.56
2019-05-06T16:57:13.843Z,11.42
2019-05-06T16:59:45.190Z,11.33
2019-05-06T17:02:26.461Z,11.30
2019-05-06T17:05:15.073Z,11.31
2019-05-06T17:07:46.786Z,11.38
2019-05-06T17:10:18.222Z,11.10
2019-05-06T17:12:49.297Z,11.01
2019-05-06T17:15:20.270Z,11.06
2019-05-06T17:17:53.104Z,10.84
2019-05-06T17:20:24.246Z,10.77
2019-05-06T17:22:55.393Z,10.79
2019-05-06T17:25:26.419Z,10.88
2019-05-06T17:28:02.016Z,10.72
2019-05-06T17:30:45.797Z,10.78
2019-05-06T17:33:42.786Z,10.91
2019-05-06T17:36:15.933Z,10.57
2019-05-06T17:38:48.755Z,10.54
2019-05-06T17:41:19.770Z,10.49
2019-05-06T17:43:52.119Z,10.41
2019-05-06T17:46:58.774Z,10.37
2019-05-06T17:49:29.880Z,10.30
2019-05-06T17:52:04.727Z,10.49
2019-05-06T17:54:35.918Z,10.24
2019-05-06T17:57:06.894Z,10.25
2019-05-06T17:59:38.003Z,10.19
2019-05-06T18:02:14.359Z,10.13
2019-05-06T18:04:45.443Z,10.08
2019-05-06T18:07:16.479Z,10.00
2019-05-06T18:09:47.417Z,9.88
2019-05-06T18:12:18.751Z,9.88
2019-05-06T18:14:49.868Z,9.85
2019-05-06T18:17:22.031Z,9.96
2019-05-06T18:19:53.248Z,9.86
2019-05-06T18:22:24.166Z,9.91
2019-05-06T18:24:55.253Z,9.92
2019-05-06T18:27:26.282Z,9.96
2019-05-06T18:30:11.528Z,9.83
2019-05-06T18:32:33.131Z,9.81
2019-05-06T18:35:03.024Z,9.74
2019-05-06T18:37:34.067Z,9.65
2019-05-06T18:40:06.368Z,9.53
2019-05-06T18:42:37.426Z,9.52
2019-05-06T18:45:08.419Z,9.43
2019-05-06T18:47:39.426Z,9.39
2019-05-06T18:50:13.777Z,9.31
2019-05-06T18:52:52.869Z,9.33
2019-05-06T18:55:23.626Z,9.34
2019-05-06T18:57:54.595Z,9.35
2019-05-06T19:00:25.604Z,9.29
2019-05-06T19:02:56.775Z,9.23
2019-05-06T19:10:33.051Z,9.08
2019-05-06T19:13:22.418Z,9.17
2019-05-06T19:15:53.926Z,9.04
2019-05-06T19:18:25.235Z,9.22
2019-05-06T19:21:15.416Z,9.31
2019-05-06T19:26:19.223Z,9.12
2019-05-06T19:28:52.693Z,9.19
2019-05-06T19:33:53.636Z,9.15
2019-05-06T19:38:54.568Z,9.10
2019-05-06T19:43:56.932Z,9.04
2019-05-06T19:48:58.909Z,9.04
2019-05-06T19:51:29.887Z,8.99
2019-05-06T19:54:02.235Z,8.96
2019-05-06T19:56:33.649Z,9.04
2019-05-06T20:04:10.437Z,9.02
2019-05-06T20:06:57.482Z,8.89
2019-05-06T20:09:42.544Z,8.96
2019-05-06T20:12:23.070Z,9.05
2019-05-06T20:15:19.383Z,8.91
2019-05-06T20:17:52.060Z,8.98
2019-05-06T20:20:23.110Z,8.80
2019-05-06T20:22:57.675Z,9.00
2019-05-06T20:25:30.295Z,8.93
2019-05-06T20:28:04.399Z,8.85
2019-05-06T20:30:38.112Z,8.95
2019-05-06T20:33:09.110Z,8.77
2019-05-06T20:35:40.141Z,8.96
2019-05-06T20:38:52.461Z,8.80
2019-05-06T20:41:23.448Z,8.84
2019-05-06T20:43:54.372Z,8.84
2019-05-06T20:46:33.431Z,8.94
2019-05-06T20:49:43.073Z,8.97
2019-05-06T20:53:01.042Z,9.02
2019-05-06T20:55:53.575Z,9.03
2019-05-06T20:58:19.907Z,9.17
2019-05-06T21:00:54.080Z,9.25
2019-05-06T21:03:25.137Z,9.38
2019-05-06T21:05:56.520Z,9.28
2019-05-06T21:08:42.195Z,9.42
2019-05-06T21:11:25.688Z,9.36
2019-05-06T21:13:45.920Z,9.33
2019-05-06T21:16:17.062Z,9.15
2019-05-06T21:18:48.346Z,8.77
2019-05-06T21:22:13.354Z,8.52
2019-05-06T21:24:02.074Z,8.24
2019-05-06T21:26:36.130Z,8.26
2019-05-06T21:29:12.790Z,8.28
2019-05-06T21:31:44.646Z,8.15
2019-05-06T21:34:15.615Z,8.29
2019-05-06T21:36:46.409Z,8.42
2019-05-06T21:39:17.418Z,8.50
2019-05-06T21:41:48.420Z,8.54
2019-05-06T21:44:19.422Z,8.58
2019-05-06T21:46:51.250Z,8.52
2019-05-06T21:51:51.659Z,8.56
2019-05-06T21:54:24.092Z,8.42
2019-05-06T21:56:55.190Z,8.47
2019-05-06T21:59:26.192Z,8.53
2019-05-06T22:01:57.219Z,8.59
2019-05-06T22:04:28.182Z,8.57
2019-05-06T22:06:59.099Z,8.46
2019-05-06T22:09:32.183Z,8.33
2019-05-06T22:12:02.858Z,8.44
2019-05-06T22:14:33.855Z,8.52
2019-05-06T22:17:07.335Z,8.42
2019-05-06T22:19:38.613Z,8.37
2019-05-06T22:22:12.053Z,8.37
2019-05-06T22:24:45.808Z,8.27
2019-05-06T22:27:17.160Z,8.20
2019-05-06T22:29:48.182Z,8.17
2019-05-06T22:32:19.211Z,8.32
2019-05-06T22:34:53.496Z,8.37
2019-05-06T22:37:24.966Z,8.24
2019-05-06T22:39:56.598Z,8.36
2019-05-06T22:42:27.527Z,8.29
2019-05-06T22:44:58.580Z,8.35
2019-05-06T22:47:29.563Z,8.48
2019-05-06T22:50:02.154Z,8.53
2019-05-06T22:52:33.585Z,8.46
2019-05-06T22:55:04.569Z,8.38
2019-05-06T22:57:35.779Z,8.55
2019-05-06T23:00:09.910Z,8.56
2019-05-06T23:03:03.390Z,8.61
2019-05-06T23:05:34.512Z,8.68
2019-05-06T23:08:06.295Z,8.73
2019-05-06T23:10:37.279Z,8.74
2019-05-06T23:13:08.331Z,8.74
2019-05-06T23:15:39.289Z,8.76
2019-05-06T23:18:10.312Z,8.82
2019-05-06T23:20:42.998Z,8.87
2019-05-06T23:23:14.154Z,8.83
2019-05-06T23:25:46.973Z,8.84
2019-05-06T23:28:17.932Z,8.88
2019-05-06T23:30:48.872Z,8.80
2019-05-06T23:33:19.908Z,8.78
2019-05-06T23:35:51.808Z,8.79
2019-05-06T23:39:16.953Z,8.83
2019-05-06T23:42:42.034Z,8.86
2019-05-06T23:46:07.264Z,8.84
2019-05-06T23:49:32.749Z,8.80
2019-05-06T23:52:58.302Z,8.78
2019-05-06T23:56:23.740Z,8.70
2019-05-06T23:58:54.876Z,8.66
